Meteo Giornale » Osservazioni meteo Italia » Rimini

ore: 05:50 - Osservazioni Meteo Rimini
Lat. 44° 2' N Lon. 12° 37' E Alt. 12 metri s.l.m.

sereno Europe/Rome

6 °C

Sereno

Temp. 24 Ore

5 °C

15 °C

Sud-Ovest

7.4 Km/h

Dew point -0 °C

Umidità 65 %

Visibilità  10 Km

Il sole sorge alle ore 06:05

Il sole tramonta alle ore 18:26

Data e Ora Cielo e Fenomeni T °C DP °C Um. % Pres. hPa Vis. km Vento km/h
Oggi h: 05:50 sereno Sereno 6 -0 65 1025 10 SO 7.4
Oggi h: 05:20 sereno Sereno 7 0 60 1025 10 SO 11.1
Oggi h: 04:50 sereno Sereno 7 0 60 1025 10 SO 7.4
Oggi h: 04:20 sereno Sereno 7 0 60 1025 10 SO 7.4
Oggi h: 03:50 sereno Sereno 6 0 65 1025 10 N 5.5
Oggi h: 03:20 sereno Sereno 7 1 65 1025 10 N 5.5
Oggi h: 02:50 sereno Sereno 7 1 65 1025 10 N 3.7
Oggi h: 01:50 sereno Sereno 6 1 70 1026 10 S/SO 7.4
Oggi h: 01:20 sereno Sereno 6 2 75 1026 10 N 5.5
Oggi h: 00:50 sereno Sereno 7 2 70 1026 10 N 5.5
Oggi h: 00:20 sereno Sereno 6 2 75 1026 10 S/SO 7.4
Ieri h: 23:50 sereno Sereno 5 2 80 1026 10 N 5.5
Ieri h: 23:20 sereno Sereno 5 2 80 1026 10 N 3.7
Ieri h: 22:50 sereno Sereno 6 2 75 1027 10 S 7.4
Ieri h: 22:20 sereno Sereno 6 1 70 1027 10 N 5.5
Ieri h: 21:50 sereno Sereno 6 2 75 1027 10 N 3.7
Ieri h: 21:20 sereno Sereno 8 2 65 1027 10 N 3.7
Ieri h: 20:50 sereno Sereno 8 2 65 1027 10 N 1.8
Ieri h: 20:20 sereno Sereno 9 2 61 1027 10 N 3.7
Ieri h: 19:50 sereno Sereno 9 2 61 1027 10 S 7.4
Ieri h: 19:20 sereno Sereno 11 0 46 1027 10 N 5.5
Ieri h: 18:20 sereno Sereno 13 0 40 1027 10 N 0
Ieri h: 17:50 sereno Sereno 13 1 43 1027 10 N 3.7
Ieri h: 17:20 sereno Sereno 13 2 47 1027 10 N 5.5
Ieri h: 16:50 sereno Sereno 13 2 47 1027 10 NE 7.4
Ieri h: 16:20 sereno Sereno 14 2 44 1027 10 N 9.3
Ieri h: 15:50 sereno Sereno 14 3 47 1028 10 N 9.3
Ieri h: 15:20 sereno Sereno 14 4 50 1028 10 N 13
Ieri h: 14:50 sereno Sereno 14 5 54 1028 10 N 13
Ieri h: 14:20 sereno Sereno 14 5 54 1029 10 N 13
Ieri h: 13:50 sereno Sereno 14 6 58 1029 10 N 14.8
Ieri h: 13:20 sereno Sereno 14 5 54 1029 10 N 14.8
Ieri h: 12:50 sereno Sereno 14 5 54 1030 10 N 16.7
Ieri h: 12:20 sereno Sereno 15 3 44 1030 10 N 13
Ieri h: 11:50 sereno Sereno 15 3 44 1030 10 N/NO 11.1
Ieri h: 11:20 sereno Sereno 15 1 38 1030 10 O 14.8
Ieri h: 10:50 sereno Sereno 14 0 38 1030 10 O 20.3
Ieri h: 10:20 sereno Sereno 13 1 43 1030 10 O 22.2
Ieri h: 09:50 sereno Sereno 13 1 43 1030 10 O 24
Ieri h: 09:20 sereno Sereno 12 -0 43 1030 10 O/NO 25.9
Ieri h: 08:50 sereno Sereno 11 0 46 1030 10 O 22.2
Ieri h: 08:20 sereno Sereno 11 -0 46 1030 10 O 20.3
Ieri h: 07:50 sereno Sereno 10 0 49 1030 10 O 16.7
Ieri h: 07:20 sereno Sereno 7 1 65 1030 10 O/SO 7.4
Ieri h: 06:50 sereno Sereno 5 -0 70 1030 10 N 3.7
Ieri h: 06:20 sereno Sereno 6 -1 60 1030 10 O/SO 13